Time;durP1;ratioP1;P1;durP2;ratioP2;P2;SDS_P1;SDS_P2;PMS_P1;PMS_P2;Temp;Humidity;BMP_temperature;BMP_pressure;BME280_temperature;BME280_humidity;BME280_pressure;Samples;Min_cycle;Max_cycle;Signal;HPM_P1;HPM_P2
2022/07/20 00:01:39;;;;;;;5.53;3.30;;;;;;;;;;5066950;28;20126;-82
2022/07/20 00:04:04;;;;;;;10.32;3.88;;;;;;;;;;5066188;28;20401;-82
2022/07/20 00:06:30;;;;;;;9.38;3.78;;;;;;;;;;5067664;28;20032;-82
2022/07/20 00:11:39;;;;;;;6.90;4.00;;;;;;;;;;5068775;28;20059;-82
2022/07/20 00:14:05;;;;;;;7.53;3.70;;;;;;;;;;5065732;28;20061;-83
2022/07/20 00:16:33;;;;;;;7.28;3.90;;;;;;;;;;5068157;28;20033;-83
2022/07/20 00:18:58;;;;;;;5.13;3.67;;;;;;;;;;5063858;28;20033;-83
2022/07/20 00:21:24;;;;;;;7.10;3.67;;;;;;;;;;5065688;28;20063;-82
2022/07/20 00:23:50;;;;;;;5.45;3.60;;;;;;;;;;5064685;28;20120;-82
2022/07/20 00:26:16;;;;;;;7.10;3.95;;;;;;;;;;5064926;28;20063;-82
2022/07/20 00:28:41;;;;;;;5.20;3.28;;;;;;;;;;5064554;28;20123;-82
2022/07/20 00:31:07;;;;;;;7.45;3.78;;;;;;;;;;5066732;28;20091;-82
2022/07/20 00:33:32;;;;;;;10.35;3.55;;;;;;;;;;5067029;28;20529;-82
2022/07/20 00:35:58;;;;;;;5.82;3.50;;;;;;;;;;5067554;28;20528;-82
2022/07/20 00:38:23;;;;;;;5.03;3.72;;;;;;;;;;5066932;28;20052;-82
2022/07/20 00:40:49;;;;;;;9.75;4.07;;;;;;;;;;5066382;28;20029;-82
2022/07/20 00:43:15;;;;;;;7.32;3.80;;;;;;;;;;5065572;28;20045;-82
2022/07/20 00:45:41;;;;;;;6.75;4.13;;;;;;;;;;5066368;28;20028;-83
2022/07/20 00:48:07;;;;;;;7.15;3.60;;;;;;;;;;5065376;28;20033;-82
2022/07/20 00:50:33;;;;;;;7.90;4.05;;;;;;;;;;5065692;28;20052;-82
2022/07/20 00:53:00;;;;;;;8.48;3.85;;;;;;;;;;5066525;28;20044;-82
2022/07/20 00:55:26;;;;;;;5.93;3.97;;;;;;;;;;5065784;28;20041;-82
2022/07/20 00:57:51;;;;;;;5.05;3.50;;;;;;;;;;5066170;28;20040;-82
2022/07/20 01:00:17;;;;;;;6.80;3.85;;;;;;;;;;5065224;28;20096;-82
2022/07/20 01:02:42;;;;;;;6.15;3.60;;;;;;;;;;5066242;28;20513;-82
2022/07/20 01:05:15;;;;;;;6.47;3.90;;;;;;;;;;5064858;28;20029;-82
2022/07/20 01:07:43;;;;;;;6.25;3.33;;;;;;;;;;5065835;28;20032;-82
2022/07/20 01:10:08;;;;;;;5.47;3.80;;;;;;;;;;5066065;28;20029;-82
2022/07/20 01:12:36;;;;;;;7.47;3.90;;;;;;;;;;5065779;28;20059;-82
2022/07/20 01:15:01;;;;;;;4.95;3.47;;;;;;;;;;5066707;28;20493;-82
2022/07/20 01:17:27;;;;;;;5.38;3.60;;;;;;;;;;5064895;28;20071;-82
2022/07/20 01:19:52;;;;;;;5.82;3.63;;;;;;;;;;5066169;28;20029;-82
2022/07/20 01:22:18;;;;;;;8.65;3.67;;;;;;;;;;5064988;28;20108;-82
2022/07/20 01:24:43;;;;;;;5.72;3.65;;;;;;;;;;5065952;28;20116;-82
2022/07/20 01:27:09;;;;;;;7.00;3.60;;;;;;;;;;5065297;28;20313;-82
2022/07/20 01:29:34;;;;;;;7.68;3.70;;;;;;;;;;5064819;28;20041;-83
2022/07/20 01:31:59;;;;;;;5.65;3.45;;;;;;;;;;5066113;28;20029;-82
2022/07/20 01:34:25;;;;;;;4.40;3.75;;;;;;;;;;5064837;28;20044;-82
2022/07/20 01:36:50;;;;;;;7.85;3.80;;;;;;;;;;5065128;28;20037;-82
2022/07/20 01:39:16;;;;;;;5.95;3.60;;;;;;;;;;5065799;28;20023;-82
2022/07/20 01:41:41;;;;;;;5.65;3.70;;;;;;;;;;5064438;28;20048;-82
2022/07/20 01:44:07;;;;;;;7.35;3.88;;;;;;;;;;5065394;28;20057;-82
2022/07/20 01:46:32;;;;;;;7.95;3.63;;;;;;;;;;5065590;28;20036;-82
2022/07/20 01:48:58;;;;;;;6.03;3.80;;;;;;;;;;5048025;28;20517;-83
2022/07/20 01:51:24;;;;;;;6.00;3.65;;;;;;;;;;5065744;28;20104;-83
2022/07/20 01:53:49;;;;;;;4.97;3.58;;;;;;;;;;5064454;28;20032;-83
2022/07/20 01:56:15;;;;;;;6.10;4.13;;;;;;;;;;5064878;28;20033;-83
2022/07/20 01:58:40;;;;;;;5.57;3.70;;;;;;;;;;5065124;28;20036;-83
2022/07/20 02:01:06;;;;;;;6.63;3.67;;;;;;;;;;5065304;28;20088;-83
2022/07/20 02:03:31;;;;;;;5.82;3.55;;;;;;;;;;5065825;28;20091;-83
2022/07/20 02:05:57;;;;;;;4.85;3.60;;;;;;;;;;5064965;28;20040;-83
2022/07/20 02:08:25;;;;;;;6.22;3.78;;;;;;;;;;5065242;28;20041;-83
2022/07/20 02:10:51;;;;;;;5.20;4.03;;;;;;;;;;5065508;28;20037;-83
2022/07/20 02:13:17;;;;;;;5.07;3.83;;;;;;;;;;5047978;28;20037;-82
2022/07/20 02:18:27;;;;;;;6.35;3.53;;;;;;;;;;5065111;28;20101;-82
2022/07/20 02:20:52;;;;;;;6.55;3.80;;;;;;;;;;5064311;28;20032;-83
2022/07/20 02:23:18;;;;;;;6.38;3.88;;;;;;;;;;5047873;28;20033;-83
2022/07/20 02:25:43;;;;;;;7.30;3.63;;;;;;;;;;5065714;28;20067;-83
2022/07/20 02:28:09;;;;;;;7.65;3.85;;;;;;;;;;5064309;28;20040;-84
2022/07/20 02:30:35;;;;;;;4.70;3.72;;;;;;;;;;5064417;28;20032;-83
2022/07/20 02:33:01;;;;;;;5.85;3.58;;;;;;;;;;5065674;28;20033;-83
2022/07/20 02:35:27;;;;;;;6.13;3.88;;;;;;;;;;5064565;28;20063;-83
2022/07/20 02:37:52;;;;;;;7.38;3.90;;;;;;;;;;5064977;28;20033;-83
2022/07/20 02:40:18;;;;;;;5.20;3.22;;;;;;;;;;5064661;28;20029;-83
2022/07/20 02:42:43;;;;;;;4.88;3.70;;;;;;;;;;5063742;28;20048;-82
2022/07/20 02:45:10;;;;;;;4.07;3.60;;;;;;;;;;5065113;28;20088;-83
2022/07/20 02:47:42;;;;;;;6.22;3.85;;;;;;;;;;5064792;28;20035;-83
2022/07/20 02:50:08;;;;;;;7.63;3.80;;;;;;;;;;5065217;28;20041;-83
2022/07/20 02:52:33;;;;;;;8.20;4.00;;;;;;;;;;5067404;28;20041;-83
2022/07/20 02:54:59;;;;;;;7.43;3.92;;;;;;;;;;5066571;28;20452;-82
2022/07/20 02:57:24;;;;;;;8.10;4.03;;;;;;;;;;5068023;28;20036;-82
2022/07/20 02:59:50;;;;;;;8.30;4.03;;;;;;;;;;5067180;28;20128;-83
2022/07/20 03:02:15;;;;;;;10.13;4.22;;;;;;;;;;5068824;28;20043;-83
2022/07/20 03:04:41;;;;;;;9.63;3.67;;;;;;;;;;5067917;28;20033;-83
2022/07/20 03:07:06;;;;;;;5.97;3.80;;;;;;;;;;5068231;28;20032;-83
2022/07/20 03:09:31;;;;;;;7.00;4.15;;;;;;;;;;5068007;28;20029;-83
2022/07/20 03:11:57;;;;;;;5.22;3.78;;;;;;;;;;5068367;28;20386;-83
2022/07/20 03:14:22;;;;;;;5.60;4.20;;;;;;;;;;5067148;28;20044;-82
2022/07/20 03:16:51;;;;;;;7.55;3.95;;;;;;;;;;5067653;28;20520;-83
2022/07/20 03:19:17;;;;;;;4.72;3.72;;;;;;;;;;5068165;28;20458;-83
2022/07/20 03:21:42;;;;;;;6.07;3.90;;;;;;;;;;5067135;28;20521;-83
2022/07/20 03:24:08;;;;;;;5.88;3.70;;;;;;;;;;5067841;28;20032;-83
2022/07/20 03:26:33;;;;;;;7.05;3.83;;;;;;;;;;5066898;28;20037;-81
2022/07/20 03:28:59;;;;;;;5.97;4.00;;;;;;;;;;5066486;28;20048;-82
2022/07/20 03:31:24;;;;;;;6.70;3.88;;;;;;;;;;5067515;28;20037;-82
2022/07/20 03:33:50;;;;;;;7.85;3.90;;;;;;;;;;5067829;28;20041;-83
2022/07/20 03:36:15;;;;;;;7.15;3.70;;;;;;;;;;5067149;28;20028;-83
2022/07/20 03:38:41;;;;;;;6.20;3.95;;;;;;;;;;5067718;28;20028;-83
2022/07/20 03:41:06;;;;;;;6.85;3.85;;;;;;;;;;5067196;28;20096;-82
2022/07/20 03:43:32;;;;;;;6.28;3.30;;;;;;;;;;5066615;28;20382;-83
2022/07/20 03:45:57;;;;;;;5.70;3.97;;;;;;;;;;5067421;28;20112;-83
2022/07/20 03:48:22;;;;;;;8.68;4.15;;;;;;;;;;5067255;28;20025;-83
2022/07/20 03:50:48;;;;;;;6.75;3.97;;;;;;;;;;5066738;28;20435;-83
2022/07/20 03:53:13;;;;;;;6.80;3.70;;;;;;;;;;5066243;28;20451;-83
2022/07/20 03:55:39;;;;;;;6.78;4.28;;;;;;;;;;5065988;28;20052;-83
2022/07/20 03:58:05;;;;;;;7.82;4.00;;;;;;;;;;5067056;28;20029;-83
2022/07/20 04:00:30;;;;;;;5.97;3.80;;;;;;;;;;5066541;28;20043;-82
2022/07/20 04:02:56;;;;;;;4.80;3.85;;;;;;;;;;5067408;28;20046;-83
2022/07/20 04:05:22;;;;;;;7.35;3.70;;;;;;;;;;5066267;28;20045;-83
2022/07/20 04:07:48;;;;;;;10.10;4.70;;;;;;;;;;5067158;28;20049;-82
2022/07/20 04:10:13;;;;;;;4.95;4.18;;;;;;;;;;5067767;28;20045;-83
2022/07/20 04:12:39;;;;;;;7.55;4.50;;;;;;;;;;5066448;28;20040;-83
2022/07/20 04:15:05;;;;;;;6.95;3.85;;;;;;;;;;5066850;28;20041;-82
2022/07/20 04:17:30;;;;;;;5.53;3.97;;;;;;;;;;5065992;28;20048;-82
2022/07/20 04:19:56;;;;;;;6.53;4.90;;;;;;;;;;5067499;28;20025;-83
2022/07/20 04:22:21;;;;;;;7.40;5.20;;;;;;;;;;5067022;28;20050;-83
2022/07/20 04:24:47;;;;;;;5.38;4.22;;;;;;;;;;5066489;28;20032;-83
2022/07/20 04:27:13;;;;;;;6.32;4.10;;;;;;;;;;5066847;28;20090;-82
2022/07/20 04:29:38;;;;;;;8.45;4.20;;;;;;;;;;5066493;28;20041;-83
2022/07/20 04:32:04;;;;;;;7.40;4.40;;;;;;;;;;5065986;28;20067;-83
2022/07/20 04:34:30;;;;;;;11.93;4.78;;;;;;;;;;5066697;28;20044;-82
2022/07/20 04:36:56;;;;;;;10.05;4.40;;;;;;;;;;5065882;28;20098;-83
2022/07/20 04:39:22;;;;;;;6.75;4.32;;;;;;;;;;5065794;28;20509;-83
2022/07/20 04:41:47;;;;;;;6.82;4.47;;;;;;;;;;5066441;28;20033;-83
2022/07/20 04:44:13;;;;;;;6.90;4.50;;;;;;;;;;5066959;28;20664;-83
2022/07/20 04:46:38;;;;;;;6.07;4.50;;;;;;;;;;5066159;28;20047;-82
2022/07/20 04:49:04;;;;;;;6.57;4.70;;;;;;;;;;5048466;28;20052;-83
2022/07/20 04:51:30;;;;;;;10.40;4.70;;;;;;;;;;5065764;28;20037;-81
2022/07/20 04:53:56;;;;;;;8.15;4.00;;;;;;;;;;5066104;28;20033;-82
2022/07/20 04:56:22;;;;;;;9.23;4.40;;;;;;;;;;5065525;28;20041;-83
2022/07/20 04:58:50;;;;;;;10.68;4.32;;;;;;;;;;5064557;28;20033;-83
2022/07/20 05:01:16;;;;;;;6.57;4.13;;;;;;;;;;5065999;28;20067;-83
2022/07/20 05:03:42;;;;;;;5.40;3.85;;;;;;;;;;5065499;28;20032;-83
2022/07/20 05:06:07;;;;;;;6.68;4.00;;;;;;;;;;5065975;28;20037;-83
2022/07/20 05:08:33;;;;;;;5.95;4.35;;;;;;;;;;5065357;28;20094;-85
2022/07/20 05:10:58;;;;;;;6.75;4.28;;;;;;;;;;5064045;28;20032;-83
2022/07/20 05:13:24;;;;;;;8.15;4.40;;;;;;;;;;5065593;28;20033;-84
2022/07/20 05:15:49;;;;;;;5.88;4.10;;;;;;;;;;5064352;28;20071;-84
2022/07/20 05:18:15;;;;;;;9.18;4.47;;;;;;;;;;5065318;28;20029;-84
2022/07/20 05:20:40;;;;;;;9.20;4.40;;;;;;;;;;5065580;28;20041;-83
2022/07/20 05:23:06;;;;;;;7.63;4.70;;;;;;;;;;5065944;28;20120;-85
2022/07/20 05:25:31;;;;;;;10.57;4.30;;;;;;;;;;5065294;28;20043;-84
2022/07/20 05:27:57;;;;;;;9.82;4.57;;;;;;;;;;5064037;28;20063;-84
2022/07/20 05:30:22;;;;;;;9.93;4.70;;;;;;;;;;5064664;28;20043;-84
2022/07/20 05:32:48;;;;;;;8.02;4.53;;;;;;;;;;5065468;28;20505;-83
2022/07/20 05:35:13;;;;;;;8.57;4.57;;;;;;;;;;5062989;28;20408;-84
2022/07/20 05:37:39;;;;;;;6.32;4.50;;;;;;;;;;5063384;28;20470;-84
2022/07/20 05:40:05;;;;;;;7.78;4.47;;;;;;;;;;5064385;28;20033;-84
2022/07/20 05:42:31;;;;;;;5.75;4.32;;;;;;;;;;5064195;28;20096;-84
2022/07/20 05:44:56;;;;;;;6.40;4.38;;;;;;;;;;5064601;28;20049;-83
2022/07/20 05:47:22;;;;;;;5.13;3.88;;;;;;;;;;5063396;28;20039;-83
2022/07/20 05:49:48;;;;;;;6.93;4.20;;;;;;;;;;5063822;28;20047;-84
2022/07/20 05:52:14;;;;;;;7.03;4.20;;;;;;;;;;5064658;28;20096;-83
2022/07/20 05:54:43;;;;;;;5.28;4.15;;;;;;;;;;5063657;28;20651;-84
2022/07/20 05:57:08;;;;;;;6.63;4.43;;;;;;;;;;5065270;28;20063;-83
2022/07/20 05:59:34;;;;;;;6.53;4.22;;;;;;;;;;5066628;28;20021;-83
2022/07/20 06:02:00;;;;;;;9.38;5.50;;;;;;;;;;5066330;28;20068;-83
2022/07/20 06:04:25;;;;;;;5.80;4.00;;;;;;;;;;5066458;28;20091;-83
2022/07/20 06:06:51;;;;;;;6.50;4.30;;;;;;;;;;5066410;28;20060;-83
2022/07/20 06:09:16;;;;;;;8.80;4.25;;;;;;;;;;5063780;28;20029;-84
2022/07/20 06:11:42;;;;;;;9.60;4.47;;;;;;;;;;5060856;28;20037;-84
2022/07/20 06:14:08;;;;;;;6.45;4.05;;;;;;;;;;5060491;28;20064;-83
2022/07/20 06:16:33;;;;;;;5.90;4.15;;;;;;;;;;5059240;28;20029;-85
2022/07/20 06:18:59;;;;;;;10.77;4.80;;;;;;;;;;5059043;28;20033;-85
2022/07/20 06:21:27;;;;;;;7.28;4.50;;;;;;;;;;5063061;28;20102;-85
2022/07/20 06:23:52;;;;;;;6.47;4.15;;;;;;;;;;5062213;28;20040;-85
2022/07/20 06:26:18;;;;;;;6.03;3.95;;;;;;;;;;5063893;28;20116;-83
2022/07/20 06:28:44;;;;;;;6.30;4.10;;;;;;;;;;5069701;28;20032;-84
2022/07/20 06:31:09;;;;;;;8.52;4.25;;;;;;;;;;5066715;28;20404;-87
2022/07/20 06:33:35;;;;;;;7.70;4.35;;;;;;;;;;5063727;28;20041;-88
2022/07/20 06:36:00;;;;;;;8.13;4.38;;;;;;;;;;5062819;28;20029;-87
2022/07/20 06:38:26;;;;;;;8.00;4.50;;;;;;;;;;5062980;28;20041;-87
2022/07/20 06:40:51;;;;;;;8.13;4.35;;;;;;;;;;5063452;28;20025;-86
2022/07/20 06:43:17;;;;;;;5.85;4.20;;;;;;;;;;5067224;28;20029;-86
2022/07/20 06:45:43;;;;;;;7.72;4.28;;;;;;;;;;5065709;28;20641;-86
2022/07/20 06:48:08;;;;;;;6.88;4.35;;;;;;;;;;5066792;28;20397;-86
2022/07/20 06:50:34;;;;;;;9.70;4.30;;;;;;;;;;5065085;28;20033;-84
2022/07/20 06:52:59;;;;;;;6.05;4.25;;;;;;;;;;5065621;28;20043;-85
2022/07/20 06:55:25;;;;;;;9.15;4.10;;;;;;;;;;5066656;28;20385;-85
2022/07/20 06:58:50;;;;;;;7.05;4.35;;;;;;;;;;5138362;22;20125;-87
2022/07/20 07:02:03;;;;;;;7.70;4.40;;;;;;;;;;5045559;28;20069;-85
2022/07/20 07:04:48;;;;;;;6.22;4.32;;;;;;;;;;5044106;28;20068;-86
2022/07/20 07:07:13;;;;;;;6.60;4.45;;;;;;;;;;5045718;28;20097;-85
2022/07/20 07:09:39;;;;;;;6.55;4.00;;;;;;;;;;5044634;28;20053;-86
2022/07/20 07:12:04;;;;;;;6.85;4.20;;;;;;;;;;5043379;28;20032;-83
2022/07/20 07:14:30;;;;;;;8.82;4.60;;;;;;;;;;5027561;28;20030;-86
2022/07/20 07:16:56;;;;;;;7.30;4.38;;;;;;;;;;5044638;28;20131;-87
2022/07/20 07:19:22;;;;;;;8.88;4.47;;;;;;;;;;5042757;28;20065;-85
2022/07/20 07:21:47;;;;;;;9.00;4.57;;;;;;;;;;5042720;28;20124;-84
2022/07/20 07:24:13;;;;;;;10.70;4.68;;;;;;;;;;5044620;28;20033;-85
2022/07/20 07:26:38;;;;;;;5.00;4.20;;;;;;;;;;5044165;28;20072;-86
2022/07/20 07:29:04;;;;;;;8.60;4.28;;;;;;;;;;5044026;28;20033;-86
2022/07/20 07:31:29;;;;;;;8.55;4.20;;;;;;;;;;5041491;28;20131;-88
2022/07/20 07:33:55;;;;;;;9.60;4.50;;;;;;;;;;5038370;28;20089;-90
2022/07/20 07:36:22;;;;;;;5.90;4.07;;;;;;;;;;5040123;28;20141;-85
2022/07/20 07:38:47;;;;;;;7.05;4.38;;;;;;;;;;5039624;28;20040;-87
2022/07/20 07:41:13;;;;;;;8.88;4.47;;;;;;;;;;5041107;28;20037;-87
2022/07/20 07:43:39;;;;;;;8.68;4.13;;;;;;;;;;5039784;28;20037;-87
2022/07/20 07:46:05;;;;;;;7.75;3.90;;;;;;;;;;5039989;28;20106;-87
2022/07/20 07:48:30;;;;;;;9.35;4.20;;;;;;;;;;5039323;28;20045;-85
2022/07/20 07:50:56;;;;;;;12.38;4.40;;;;;;;;;;5038960;28;20068;-85
2022/07/20 07:53:21;;;;;;;9.30;4.10;;;;;;;;;;5040223;28;20029;-85
2022/07/20 07:55:47;;;;;;;6.82;4.07;;;;;;;;;;5038319;28;20041;-85
2022/07/20 07:58:12;;;;;;;11.30;4.22;;;;;;;;;;5040746;28;20034;-86
2022/07/20 08:00:41;;;;;;;6.38;4.72;;;;;;;;;;5038964;28;20101;-85
2022/07/20 08:03:08;;;;;;;8.10;4.20;;;;;;;;;;5040714;28;20029;-86
2022/07/20 08:05:34;;;;;;;6.40;4.30;;;;;;;;;;5040166;28;20046;-85
2022/07/20 08:08:10;;;;;;;6.90;4.00;;;;;;;;;;5038840;28;20033;-85
2022/07/20 08:10:37;;;;;;;7.45;4.22;;;;;;;;;;5039625;28;20081;-84
2022/07/20 08:13:03;;;;;;;8.98;4.70;;;;;;;;;;5040038;28;20038;-87
2022/07/20 08:15:29;;;;;;;7.18;4.20;;;;;;;;;;5038029;28;20079;-85
2022/07/20 08:17:54;;;;;;;10.20;4.32;;;;;;;;;;5038483;28;20033;-86
2022/07/20 08:20:22;;;;;;;6.97;4.30;;;;;;;;;;5042172;28;20049;-84
2022/07/20 08:22:49;;;;;;;7.97;4.20;;;;;;;;;;5041077;28;20108;-84
2022/07/20 08:25:15;;;;;;;6.97;4.38;;;;;;;;;;5043704;28;20032;-84
2022/07/20 08:27:40;;;;;;;8.70;4.10;;;;;;;;;;5037792;28;20041;-84
2022/07/20 08:30:06;;;;;;;6.93;4.32;;;;;;;;;;5037813;28;20041;-86
2022/07/20 08:32:32;;;;;;;7.80;4.15;;;;;;;;;;5038855;28;20033;-84
2022/07/20 08:34:57;;;;;;;8.30;4.30;;;;;;;;;;5038211;28;20036;-84
2022/07/20 08:37:23;;;;;;;7.05;4.53;;;;;;;;;;5037353;28;20033;-84
2022/07/20 08:39:49;;;;;;;8.02;4.53;;;;;;;;;;5037945;28;20033;-84
2022/07/20 08:42:14;;;;;;;7.47;4.45;;;;;;;;;;5038043;28;20401;-84
2022/07/20 08:44:41;;;;;;;8.85;4.50;;;;;;;;;;5038027;28;20045;-84
2022/07/20 08:47:10;;;;;;;7.47;4.68;;;;;;;;;;5039283;28;20541;-84
2022/07/20 08:49:38;;;;;;;10.80;4.60;;;;;;;;;;5038322;28;20030;-83
2022/07/20 08:52:04;;;;;;;8.75;4.60;;;;;;;;;;5038996;28;20041;-87
2022/07/20 08:54:31;;;;;;;10.48;5.18;;;;;;;;;;5039151;28;20037;-85
2022/07/20 08:56:57;;;;;;;8.27;4.70;;;;;;;;;;5038653;28;20048;-86
2022/07/20 08:59:22;;;;;;;11.00;4.65;;;;;;;;;;5038400;28;20030;-85
2022/07/20 09:02:03;;;;;;;9.98;5.10;;;;;;;;;;5039116;28;20038;-85
2022/07/20 09:04:29;;;;;;;8.30;4.70;;;;;;;;;;5038247;28;20045;-85
2022/07/20 09:06:54;;;;;;;8.80;4.60;;;;;;;;;;5038478;28;20014;-86
2022/07/20 09:09:21;;;;;;;7.38;4.70;;;;;;;;;;5038985;28;20033;-85
2022/07/20 09:11:48;;;;;;;11.90;5.28;;;;;;;;;;5038219;28;20482;-86
2022/07/20 09:14:15;;;;;;;7.13;4.53;;;;;;;;;;5036267;28;20045;-85
2022/07/20 09:16:48;;;;;;;7.65;4.65;;;;;;;;;;5038357;28;20037;-86
2022/07/20 09:19:15;;;;;;;9.98;4.93;;;;;;;;;;5038643;28;20061;-86
2022/07/20 09:21:41;;;;;;;7.80;4.75;;;;;;;;;;5038833;28;20033;-86
2022/07/20 09:24:09;;;;;;;7.72;4.63;;;;;;;;;;5038500;28;20048;-85
2022/07/20 09:26:35;;;;;;;6.90;4.63;;;;;;;;;;5038947;28;20033;-86
2022/07/20 09:29:05;;;;;;;12.63;4.85;;;;;;;;;;5038549;28;20061;-86
2022/07/20 09:31:36;;;;;;;8.57;4.80;;;;;;;;;;5038574;28;20057;-86
2022/07/20 09:34:15;;;;;;;6.18;4.60;;;;;;;;;;5038067;28;20131;-85
2022/07/20 09:36:46;;;;;;;9.95;4.90;;;;;;;;;;5038248;28;20043;-86
2022/07/20 09:39:14;;;;;;;7.50;4.80;;;;;;;;;;5038494;28;20506;-86
2022/07/20 09:41:44;;;;;;;10.15;4.60;;;;;;;;;;5038244;28;20525;-86
2022/07/20 09:44:23;;;;;;;8.30;4.88;;;;;;;;;;5037896;28;20034;-86
2022/07/20 09:46:49;;;;;;;10.45;4.88;;;;;;;;;;5040720;28;20040;-85
2022/07/20 09:49:14;;;;;;;8.48;4.75;;;;;;;;;;5040065;28;20089;-86
2022/07/20 09:51:56;;;;;;;8.65;4.75;;;;;;;;;;5039405;28;20041;-86
2022/07/20 09:54:21;;;;;;;6.45;4.85;;;;;;;;;;5037081;28;20044;-86
2022/07/20 09:56:49;;;;;;;6.40;4.75;;;;;;;;;;5037996;28;20096;-86
2022/07/20 09:59:16;;;;;;;8.93;4.78;;;;;;;;;;5036242;28;20048;-86
2022/07/20 10:02:22;;;;;;;;;;;;;;;;;;;;;
2022/07/20 10:08:14;;;;;;;11.38;4.82;;;;;;;;;;5024130;28;20509;-86
2022/07/20 10:10:48;;;;;;;7.20;4.50;;;;;;;;;;5025853;28;20437;-87
2022/07/20 10:13:14;;;;;;;14.80;5.03;;;;;;;;;;5042953;28;20067;-86
2022/07/20 10:15:59;;;;;;;14.68;5.30;;;;;;;;;;5026733;28;20044;-88
2022/07/20 10:18:25;;;;;;;14.30;4.82;;;;;;;;;;5040943;28;20056;-84
2022/07/20 10:20:50;;;;;;;10.32;4.60;;;;;;;;;;5040966;28;20061;-85
2022/07/20 10:23:16;;;;;;;10.13;4.63;;;;;;;;;;5041349;28;20052;-83
2022/07/20 10:25:46;;;;;;;9.18;4.70;;;;;;;;;;5039221;28;20048;-85
2022/07/20 10:28:36;;;;;;;7.40;4.80;;;;;;;;;;5040912;28;20056;-83
2022/07/20 10:31:16;;;;;;;8.90;4.68;;;;;;;;;;5041599;28;20120;-85
2022/07/20 10:33:42;;;;;;;8.82;4.40;;;;;;;;;;5042451;28;20045;-83
2022/07/20 10:39:43;;;;;;;9.40;4.82;;;;;;;;;;5043221;28;20044;-84
2022/07/20 10:42:53;;;;;;;11.23;4.25;;;;;;;;;;5043168;28;20061;-83
2022/07/20 10:45:27;;;;;;;8.02;4.70;;;;;;;;;;5001388;28;20502;-84
2022/07/20 10:48:16;;;;;;;7.47;4.50;;;;;;;;;;5001144;28;20050;-83
2022/07/20 10:50:49;;;;;;;11.90;5.03;;;;;;;;;;5018985;28;20063;-83
2022/07/20 10:53:14;;;;;;;9.95;4.70;;;;;;;;;;5043048;28;20580;-83
2022/07/20 10:55:52;;;;;;;10.15;4.30;;;;;;;;;;5025321;28;20080;-83
2022/07/20 10:58:23;;;;;;;5.10;4.13;;;;;;;;;;5042632;28;20033;-84
2022/07/20 11:00:57;;;;;;;6.10;4.00;;;;;;;;;;5043139;28;20048;-83
2022/07/20 11:03:23;;;;;;;7.35;4.20;;;;;;;;;;5041941;28;20048;-83
2022/07/20 11:05:59;;;;;;;7.13;4.50;;;;;;;;;;5043339;28;20132;-84
2022/07/20 11:08:25;;;;;;;12.27;4.78;;;;;;;;;;5042566;28;20029;-83
2022/07/20 11:10:52;;;;;;;8.50;4.28;;;;;;;;;;5042727;28;20051;-83
2022/07/20 11:13:18;;;;;;;7.32;4.28;;;;;;;;;;5041310;28;20045;-83
2022/07/20 11:15:50;;;;;;;5.68;3.95;;;;;;;;;;5042610;28;20421;-84
2022/07/20 11:18:19;;;;;;;8.90;3.92;;;;;;;;;;5043254;28;20029;-84
2022/07/20 11:20:50;;;;;;;6.35;3.85;;;;;;;;;;5042827;28;20102;-84
2022/07/20 11:23:18;;;;;;;12.90;4.00;;;;;;;;;;5042170;28;20056;-85
2022/07/20 11:25:55;;;;;;;6.07;3.90;;;;;;;;;;5042113;28;20120;-84
2022/07/20 11:28:23;;;;;;;8.70;4.07;;;;;;;;;;5042860;28;20057;-85
2022/07/20 11:30:50;;;;;;;11.05;4.25;;;;;;;;;;5042455;28;20013;-84
2022/07/20 11:33:26;;;;;;;8.18;4.25;;;;;;;;;;5041620;28;20089;-83
2022/07/20 11:35:51;;;;;;;6.35;3.90;;;;;;;;;;5041816;28;20033;-84
2022/07/20 11:38:17;;;;;;;6.30;4.00;;;;;;;;;;5041364;28;20044;-84
2022/07/20 11:40:58;;;;;;;5.60;3.75;;;;;;;;;;5042893;28;20079;-84
2022/07/20 11:43:24;;;;;;;5.72;3.80;;;;;;;;;;5042631;28;20045;-84
2022/07/20 11:45:49;;;;;;;7.72;3.70;;;;;;;;;;5042503;28;20044;-84
2022/07/20 11:48:24;;;;;;;5.75;3.88;;;;;;;;;;5042788;28;20034;-84
2022/07/20 11:50:50;;;;;;;6.85;4.03;;;;;;;;;;5043276;28;20038;-84
2022/07/20 11:53:30;;;;;;;7.43;4.20;;;;;;;;;;5042506;28;20491;-84
2022/07/20 11:55:58;;;;;;;8.75;4.15;;;;;;;;;;5042131;28;20056;-84
2022/07/20 11:58:26;;;;;;;6.05;4.40;;;;;;;;;;5042106;28;20041;-84
2022/07/20 12:00:53;;;;;;;6.75;3.97;;;;;;;;;;5024441;28;20037;-84
2022/07/20 12:03:26;;;;;;;5.90;4.05;;;;;;;;;;5041230;28;20088;-84
2022/07/20 12:05:52;;;;;;;6.45;3.92;;;;;;;;;;5042494;28;20040;-84
2022/07/20 12:08:18;;;;;;;7.63;4.20;;;;;;;;;;5040998;28;20067;-84
2022/07/20 12:10:45;;;;;;;8.50;3.95;;;;;;;;;;5040618;28;20060;-84
2022/07/20 12:13:12;;;;;;;6.15;4.05;;;;;;;;;;5042492;28;20033;-84
2022/07/20 12:15:37;;;;;;;8.52;4.05;;;;;;;;;;5041480;28;20456;-84
2022/07/20 12:18:03;;;;;;;6.13;4.13;;;;;;;;;;5042487;28;20037;-83
2022/07/20 12:20:29;;;;;;;7.25;4.38;;;;;;;;;;5042088;28;20064;-84
2022/07/20 12:22:56;;;;;;;5.97;4.00;;;;;;;;;;5040779;28;20113;-84
2022/07/20 12:25:34;;;;;;;7.70;3.88;;;;;;;;;;5040570;28;20088;-82
2022/07/20 12:28:00;;;;;;;9.02;4.20;;;;;;;;;;5117622;22;20140;-84
2022/07/20 12:30:28;;;;;;;8.65;4.15;;;;;;;;;;5060674;28;20033;-83
2022/07/20 12:33:11;;;;;;;5.85;3.85;;;;;;;;;;5060914;28;20044;-84
2022/07/20 12:35:39;;;;;;;10.05;4.18;;;;;;;;;;5061045;28;20120;-84
2022/07/20 12:38:05;;;;;;;6.65;3.88;;;;;;;;;;5059702;28;20040;-84
2022/07/20 12:40:31;;;;;;;7.03;4.28;;;;;;;;;;5061973;28;20037;-84
2022/07/20 12:42:56;;;;;;;6.47;4.05;;;;;;;;;;5076956;28;20046;-84
2022/07/20 12:45:22;;;;;;;6.82;3.85;;;;;;;;;;5059667;28;20021;-84
2022/07/20 12:47:47;;;;;;;7.63;4.10;;;;;;;;;;5061726;28;20033;-84
2022/07/20 12:50:13;;;;;;;10.32;4.13;;;;;;;;;;5043193;28;20039;-84
2022/07/20 12:52:39;;;;;;;6.60;3.80;;;;;;;;;;5061420;28;20048;-83
2022/07/20 12:55:04;;;;;;;5.95;3.50;;;;;;;;;;5061025;28;20051;-85
2022/07/20 12:57:30;;;;;;;5.13;3.47;;;;;;;;;;5062131;28;20029;-85
2022/07/20 12:59:55;;;;;;;9.00;3.70;;;;;;;;;;5061397;28;20017;-84
2022/07/20 13:02:21;;;;;;;5.72;3.60;;;;;;;;;;5061571;28;20069;-84
2022/07/20 13:04:46;;;;;;;5.22;3.55;;;;;;;;;;5059263;28;20033;-85
2022/07/20 13:07:13;;;;;;;7.50;3.40;;;;;;;;;;5061336;28;20028;-84
2022/07/20 13:09:38;;;;;;;7.10;3.65;;;;;;;;;;5060050;28;20079;-84
2022/07/20 13:12:04;;;;;;;4.88;3.55;;;;;;;;;;5060415;28;20036;-88
2022/07/20 13:14:30;;;;;;;6.15;3.65;;;;;;;;;;5067929;28;20026;-86
2022/07/20 13:16:55;;;;;;;4.13;3.25;;;;;;;;;;5065467;28;20056;-86
2022/07/20 13:19:21;;;;;;;9.60;3.80;;;;;;;;;;5064201;28;20402;-86
2022/07/20 13:21:47;;;;;;;6.78;3.25;;;;;;;;;;5063518;28;20043;-85
2022/07/20 13:24:14;;;;;;;10.30;3.65;;;;;;;;;;5061888;28;20057;-86
2022/07/20 13:26:41;;;;;;;5.78;3.50;;;;;;;;;;5063215;28;20091;-85
2022/07/20 13:29:08;;;;;;;7.55;3.47;;;;;;;;;;5063363;28;20036;-85
2022/07/20 13:31:33;;;;;;;6.10;3.60;;;;;;;;;;5062628;28;20139;-85
2022/07/20 13:34:00;;;;;;;11.88;4.03;;;;;;;;;;5061538;28;20040;-84
2022/07/20 13:36:26;;;;;;;5.68;3.30;;;;;;;;;;5062819;28;20041;-86
2022/07/20 13:38:52;;;;;;;7.10;3.67;;;;;;;;;;5065137;28;20043;-85
2022/07/20 13:41:21;;;;;;;8.68;3.75;;;;;;;;;;5063390;28;20060;-85
2022/07/20 13:43:48;;;;;;;7.75;3.50;;;;;;;;;;5052351;28;20044;-85
2022/07/20 13:46:14;;;;;;;7.40;3.50;;;;;;;;;;5038098;28;20037;-86
2022/07/20 13:48:40;;;;;;;7.75;3.47;;;;;;;;;;5040849;28;20061;-85
2022/07/20 13:51:06;;;;;;;9.65;3.53;;;;;;;;;;5040608;28;20036;-85
2022/07/20 13:53:32;;;;;;;7.88;3.30;;;;;;;;;;5040113;28;20616;-86
2022/07/20 13:55:58;;;;;;;9.45;3.65;;;;;;;;;;5040014;28;20033;-84
2022/07/20 13:58:24;;;;;;;5.50;3.55;;;;;;;;;;5039583;28;20127;-84
2022/07/20 14:00:50;;;;;;;5.97;3.30;;;;;;;;;;5040645;28;20517;-84
2022/07/20 14:03:16;;;;;;;5.95;3.58;;;;;;;;;;5039345;28;20037;-85
2022/07/20 14:05:42;;;;;;;7.65;3.30;;;;;;;;;;5038818;28;20115;-83
2022/07/20 14:08:07;;;;;;;8.77;3.53;;;;;;;;;;5042249;28;20037;-82
2022/07/20 14:10:34;;;;;;;11.13;3.63;;;;;;;;;;5040831;28;20061;-83
2022/07/20 14:12:59;;;;;;;10.43;3.60;;;;;;;;;;5037900;28;20040;-83
2022/07/20 14:15:25;;;;;;;6.25;3.55;;;;;;;;;;5038323;28;20035;-86
2022/07/20 14:17:51;;;;;;;6.00;3.53;;;;;;;;;;5040094;28;20062;-86
2022/07/20 14:20:16;;;;;;;6.80;3.67;;;;;;;;;;5040809;28;20371;-86
2022/07/20 14:22:42;;;;;;;8.75;3.50;;;;;;;;;;5038803;28;20042;-88
2022/07/20 14:25:08;;;;;;;11.13;3.70;;;;;;;;;;5039039;28;20405;-87
2022/07/20 14:27:34;;;;;;;7.43;3.50;;;;;;;;;;5039600;28;20040;-88
2022/07/20 14:29:59;;;;;;;6.63;3.75;;;;;;;;;;5040487;28;20068;-86
2022/07/20 14:32:26;;;;;;;7.72;3.50;;;;;;;;;;5039921;28;20413;-87
2022/07/20 14:34:51;;;;;;;9.32;3.45;;;;;;;;;;5038876;28;20044;-86
2022/07/20 14:37:17;;;;;;;6.15;3.80;;;;;;;;;;5040744;28;20042;-87
2022/07/20 14:39:43;;;;;;;5.95;3.53;;;;;;;;;;5044505;28;20033;-82
2022/07/20 14:42:08;;;;;;;5.78;3.20;;;;;;;;;;5044169;28;20037;-83
2022/07/20 14:44:34;;;;;;;10.10;3.50;;;;;;;;;;5044188;28;20080;-83
2022/07/20 14:47:00;;;;;;;10.35;3.63;;;;;;;;;;5043261;28;20041;-84
2022/07/20 14:49:25;;;;;;;5.40;3.63;;;;;;;;;;5043335;28;20112;-84
2022/07/20 14:51:51;;;;;;;6.15;3.67;;;;;;;;;;5047775;28;20092;-84
2022/07/20 14:54:17;;;;;;;7.65;3.38;;;;;;;;;;5047421;28;20048;-84
2022/07/20 14:56:43;;;;;;;8.43;3.72;;;;;;;;;;5045334;28;20033;-85